createdAt,value
2018-09-21T00:00:08.502Z,99.90
2018-09-21T00:02:36.983Z,99.90
2018-09-21T00:05:06.241Z,99.90
2018-09-21T00:07:35.072Z,99.90
2018-09-21T00:10:03.457Z,99.90
2018-09-21T00:12:31.935Z,99.90
2018-09-21T00:15:00.483Z,99.90
2018-09-21T00:17:28.859Z,99.90
2018-09-21T00:19:57.285Z,99.90
2018-09-21T00:22:25.832Z,99.90
2018-09-21T00:24:54.287Z,99.90
2018-09-21T00:27:22.766Z,99.90
2018-09-21T00:29:51.204Z,99.90
2018-09-21T00:32:19.581Z,99.90
2018-09-21T00:34:47.931Z,99.90
2018-09-21T00:37:16.343Z,99.90
2018-09-21T00:39:44.703Z,99.90
2018-09-21T00:42:13.129Z,99.90
2018-09-21T00:44:41.549Z,99.90
2018-09-21T00:47:09.978Z,99.90
2018-09-21T00:49:38.867Z,99.90
2018-09-21T00:52:07.654Z,99.90
2018-09-21T00:54:36.093Z,99.90
2018-09-21T00:57:04.429Z,99.90
2018-09-21T00:59:32.801Z,99.90
2018-09-21T01:02:01.225Z,99.90
2018-09-21T01:04:33.901Z,99.90
2018-09-21T01:07:02.221Z,99.90
2018-09-21T01:09:30.708Z,99.90
2018-09-21T01:11:59.153Z,99.90
2018-09-21T01:14:27.512Z,99.90
2018-09-21T01:16:55.957Z,99.90
2018-09-21T01:19:24.331Z,99.90
2018-09-21T01:21:52.680Z,99.90
2018-09-21T01:24:21.191Z,99.90
2018-09-21T01:26:49.792Z,99.90
2018-09-21T01:29:18.233Z,99.90
2018-09-21T01:31:46.680Z,99.90
2018-09-21T01:34:15.633Z,99.90
2018-09-21T01:36:44.027Z,99.90
2018-09-21T01:39:12.405Z,99.90
2018-09-21T01:41:40.777Z,99.90
2018-09-21T01:44:09.672Z,99.90
2018-09-21T01:46:38.626Z,99.90
2018-09-21T01:49:07.219Z,99.90
2018-09-21T01:51:35.629Z,99.90
2018-09-21T01:54:04.122Z,99.90
2018-09-21T01:56:32.527Z,99.90
2018-09-21T01:59:01.015Z,99.90
2018-09-21T02:01:29.421Z,99.90
2018-09-21T02:03:57.825Z,99.90
2018-09-21T02:06:26.180Z,99.90
2018-09-21T02:08:54.639Z,99.90
2018-09-21T02:11:23.045Z,99.90
2018-09-21T02:13:51.535Z,99.90
2018-09-21T02:16:19.890Z,99.90
2018-09-21T02:18:48.425Z,99.90
2018-09-21T02:21:16.904Z,99.90
2018-09-21T02:23:45.242Z,99.90
2018-09-21T02:26:13.632Z,99.90
2018-09-21T02:28:41.985Z,99.90
2018-09-21T02:31:10.282Z,99.90
2018-09-21T02:33:38.596Z,99.90
2018-09-21T02:36:07.221Z,99.90
2018-09-21T02:38:35.519Z,99.90
2018-09-21T02:41:03.822Z,99.90
2018-09-21T02:43:32.109Z,99.90
2018-09-21T02:46:00.483Z,99.90
2018-09-21T02:48:28.827Z,99.90
2018-09-21T02:50:57.185Z,99.90
2018-09-21T02:53:25.529Z,99.90
2018-09-21T02:55:53.897Z,99.90
2018-09-21T02:58:22.277Z,99.90
2018-09-21T03:00:50.930Z,99.90
2018-09-21T03:03:19.126Z,99.90
2018-09-21T03:05:47.520Z,99.90
2018-09-21T03:08:15.930Z,99.90
2018-09-21T03:10:44.285Z,99.90
2018-09-21T03:13:12.674Z,99.90
2018-09-21T03:15:41.056Z,99.90
2018-09-21T03:18:09.419Z,99.90
2018-09-21T03:20:37.867Z,99.90
2018-09-21T03:23:06.344Z,99.90
2018-09-21T03:25:34.707Z,99.90
2018-09-21T03:28:03.002Z,99.90
2018-09-21T03:30:31.434Z,99.90
2018-09-21T03:32:59.759Z,99.90
2018-09-21T03:35:28.108Z,99.90
2018-09-21T03:37:56.503Z,99.90
2018-09-21T03:40:24.956Z,99.90
2018-09-21T03:42:53.365Z,99.90
2018-09-21T03:45:21.748Z,99.90
2018-09-21T03:47:50.211Z,99.90
2018-09-21T03:50:18.636Z,99.90
2018-09-21T03:52:47.086Z,99.90
2018-09-21T03:55:15.464Z,99.90
2018-09-21T03:57:43.895Z,99.90
2018-09-21T04:00:12.311Z,99.90
2018-09-21T04:02:40.720Z,99.90
2018-09-21T04:05:09.127Z,99.90
2018-09-21T04:07:37.596Z,99.90
2018-09-21T04:10:06.010Z,99.90
2018-09-21T04:12:34.427Z,99.90
2018-09-21T04:15:02.815Z,99.90
2018-09-21T04:17:31.176Z,99.90
2018-09-21T04:19:59.528Z,99.90
2018-09-21T04:22:28.077Z,99.90
2018-09-21T04:24:56.430Z,99.90
2018-09-21T04:27:25.076Z,99.90
2018-09-21T04:29:53.533Z,99.90
2018-09-21T04:32:22.013Z,99.90
2018-09-21T04:34:51.400Z,99.90
2018-09-21T04:37:19.824Z,99.90
2018-09-21T04:39:48.557Z,99.90
2018-09-21T04:42:17.115Z,99.90
2018-09-21T04:44:45.538Z,99.90
2018-09-21T04:47:13.975Z,99.90
2018-09-21T04:49:42.794Z,99.90
2018-09-21T04:52:11.189Z,99.90
2018-09-21T04:54:39.578Z,99.90
2018-09-21T04:57:08.073Z,99.90
2018-09-21T04:59:36.494Z,99.90
2018-09-21T05:02:04.971Z,99.90
2018-09-21T05:04:33.352Z,99.90
2018-09-21T05:07:01.786Z,99.90
2018-09-21T05:09:30.108Z,99.90
2018-09-21T05:11:58.478Z,99.90
2018-09-21T05:14:26.926Z,99.90
2018-09-21T05:16:55.333Z,99.90
2018-09-21T05:19:23.753Z,99.90
2018-09-21T05:21:52.199Z,99.90
2018-09-21T05:24:20.617Z,99.90
2018-09-21T05:26:48.989Z,99.90
2018-09-21T05:29:17.357Z,99.90
2018-09-21T05:31:45.755Z,99.90
2018-09-21T05:34:14.143Z,99.90
2018-09-21T05:36:42.600Z,99.90
2018-09-21T05:39:14.281Z,99.90
2018-09-21T05:41:43.156Z,99.90
2018-09-21T05:44:12.217Z,99.90
2018-09-21T05:46:41.441Z,99.90
2018-09-21T05:49:09.969Z,99.90
2018-09-21T05:51:38.353Z,99.90
2018-09-21T05:54:06.816Z,99.90
2018-09-21T05:56:35.466Z,99.90
2018-09-21T05:59:03.939Z,99.90
2018-09-21T06:01:32.285Z,99.90
2018-09-21T06:04:00.701Z,99.90
2018-09-21T06:06:29.139Z,99.90
2018-09-21T06:08:57.567Z,99.90
2018-09-21T06:11:25.939Z,99.90
2018-09-21T06:13:54.587Z,99.90
2018-09-21T06:16:23.005Z,99.90
2018-09-21T06:18:51.397Z,99.90
2018-09-21T06:21:19.829Z,99.90
2018-09-21T06:23:48.316Z,99.90
2018-09-21T06:26:16.722Z,99.90
2018-09-21T06:28:45.155Z,99.90
2018-09-21T06:31:13.598Z,99.90
2018-09-21T06:33:42.032Z,99.90
2018-09-21T06:36:10.446Z,99.90
2018-09-21T06:38:38.794Z,99.90
2018-09-21T06:41:07.377Z,99.90
2018-09-21T06:43:36.173Z,99.90
2018-09-21T06:46:05.535Z,99.90
2018-09-21T06:48:33.926Z,99.90
2018-09-21T06:51:02.318Z,99.90
2018-09-21T06:53:30.897Z,99.90
2018-09-21T06:55:59.224Z,99.90
2018-09-21T06:58:27.732Z,99.90
2018-09-21T07:00:56.294Z,99.90
2018-09-21T07:03:25.340Z,99.90
2018-09-21T07:05:53.832Z,99.90
2018-09-21T07:08:22.230Z,99.90
2018-09-21T07:10:50.572Z,99.90
2018-09-21T07:13:26.771Z,99.90
2018-09-21T07:15:55.200Z,99.90
2018-09-21T07:18:23.601Z,99.90
2018-09-21T07:20:51.988Z,99.90
2018-09-21T07:23:20.414Z,99.90
2018-09-21T07:25:48.848Z,99.90
2018-09-21T07:28:17.380Z,99.80
2018-09-21T07:30:45.819Z,99.60
2018-09-21T07:33:14.242Z,99.80
2018-09-21T07:35:42.708Z,99.60
2018-09-21T07:38:11.100Z,98.70
2018-09-21T07:40:39.581Z,97.80
2018-09-21T07:43:08.031Z,96.50
2018-09-21T07:45:36.360Z,95.50
2018-09-21T07:48:04.722Z,93.60
2018-09-21T07:50:33.185Z,92.40
2018-09-21T07:53:01.525Z,91.30
2018-09-21T07:55:29.863Z,90.90
2018-09-21T07:57:58.241Z,88.90
2018-09-21T08:00:26.684Z,87.80
2018-09-21T08:02:55.132Z,86.20
2018-09-21T08:05:39.003Z,86.90
2018-09-21T08:08:07.439Z,83.70
2018-09-21T08:10:35.850Z,82.50
2018-09-21T08:13:04.269Z,80.90
2018-09-21T08:15:32.722Z,82.20
2018-09-21T08:18:01.097Z,82.10
2018-09-21T08:20:29.495Z,83.00
2018-09-21T08:22:57.945Z,81.40
2018-09-21T08:25:26.292Z,80.50
2018-09-21T08:27:54.680Z,81.30
2018-09-21T08:30:23.177Z,80.10
2018-09-21T08:32:51.553Z,81.30
2018-09-21T08:35:19.992Z,82.30
2018-09-21T08:37:48.393Z,83.00
2018-09-21T08:40:16.697Z,82.80
2018-09-21T08:42:45.163Z,83.30
2018-09-21T08:45:13.505Z,82.80
2018-09-21T08:47:41.991Z,83.10
2018-09-21T08:50:10.786Z,83.10
2018-09-21T08:52:39.143Z,84.40
2018-09-21T08:55:07.788Z,85.00
2018-09-21T08:57:36.154Z,84.90
2018-09-21T09:00:04.760Z,85.30
2018-09-21T09:02:33.212Z,84.60
2018-09-21T09:05:01.655Z,85.50
2018-09-21T09:07:30.097Z,85.90
2018-09-21T09:09:58.548Z,85.30
2018-09-21T09:12:26.993Z,87.00
2018-09-21T09:14:55.389Z,86.00
2018-09-21T09:17:23.820Z,86.90
2018-09-21T09:19:52.195Z,88.00
2018-09-21T09:22:20.601Z,88.20
2018-09-21T09:24:48.996Z,87.10
2018-09-21T09:27:17.390Z,85.40
2018-09-21T09:29:45.844Z,85.80
2018-09-21T09:32:14.492Z,86.20
2018-09-21T09:34:42.898Z,85.10
2018-09-21T09:37:11.274Z,89.30
2018-09-21T09:39:39.674Z,85.60
2018-09-21T09:42:08.044Z,86.80
2018-09-21T09:44:36.412Z,83.80
2018-09-21T09:47:04.832Z,81.90
2018-09-21T09:49:33.365Z,85.00
2018-09-21T09:52:03.111Z,82.70
2018-09-21T09:54:31.466Z,83.40
2018-09-21T09:56:59.888Z,80.90
2018-09-21T09:59:28.332Z,83.50
2018-09-21T10:01:56.722Z,79.40
2018-09-21T10:04:25.136Z,76.30
2018-09-21T10:06:53.513Z,76.20
2018-09-21T10:09:21.926Z,80.00
2018-09-21T10:11:50.307Z,78.50
2018-09-21T10:14:18.726Z,76.50
2018-09-21T10:16:47.231Z,75.40
2018-09-21T10:19:15.669Z,78.40
2018-09-21T10:21:44.210Z,76.50
2018-09-21T10:24:12.655Z,77.50
2018-09-21T10:26:41.099Z,74.80
2018-09-21T10:29:09.424Z,75.80
2018-09-21T10:31:37.884Z,74.60
2018-09-21T10:34:06.335Z,73.60
2018-09-21T10:36:34.879Z,73.70
2018-09-21T10:39:03.894Z,73.90
2018-09-21T10:41:32.400Z,76.40
2018-09-21T10:44:00.813Z,76.20
2018-09-21T10:46:29.303Z,75.30
2018-09-21T10:48:57.657Z,75.70
2018-09-21T10:51:26.088Z,77.60
2018-09-21T10:53:54.613Z,77.60
2018-09-21T10:56:22.961Z,77.00
2018-09-21T10:58:51.373Z,77.20
2018-09-21T11:01:19.762Z,76.30
2018-09-21T11:03:48.199Z,78.10
2018-09-21T11:06:16.645Z,80.90
2018-09-21T11:08:45.068Z,78.20
2018-09-21T11:11:13.493Z,78.70
2018-09-21T11:13:41.867Z,80.90
2018-09-21T11:16:10.250Z,81.10
2018-09-21T11:18:38.669Z,79.00
2018-09-21T11:21:07.083Z,82.20
2018-09-21T11:23:35.487Z,80.20
2018-09-21T11:26:03.947Z,80.40
2018-09-21T11:28:32.454Z,80.50
2018-09-21T11:31:00.837Z,77.90
2018-09-21T11:33:29.308Z,79.10
2018-09-21T11:35:58.355Z,75.70
2018-09-21T11:38:26.787Z,76.80
2018-09-21T11:40:55.207Z,79.10
2018-09-21T11:43:23.608Z,78.10
2018-09-21T11:45:51.969Z,77.40
2018-09-21T11:48:20.393Z,78.40
2018-09-21T11:50:48.786Z,76.30
2018-09-21T11:53:17.225Z,76.60
2018-09-21T11:55:45.686Z,77.20
2018-09-21T11:58:14.126Z,79.10
2018-09-21T12:00:42.593Z,75.30
2018-09-21T12:03:11.025Z,75.40
2018-09-21T12:05:39.474Z,75.00
2018-09-21T12:08:07.940Z,75.20
2018-09-21T12:10:36.366Z,76.80
2018-09-21T12:13:04.727Z,75.10
2018-09-21T12:15:33.143Z,77.70
2018-09-21T12:18:01.714Z,73.50
2018-09-21T12:20:30.159Z,75.90
2018-09-21T12:22:58.554Z,75.30
2018-09-21T12:25:26.925Z,75.30
2018-09-21T12:27:55.271Z,73.30
2018-09-21T12:30:23.800Z,73.70
2018-09-21T12:32:52.480Z,72.80
2018-09-21T12:35:20.901Z,73.50
2018-09-21T12:37:49.284Z,75.20
2018-09-21T12:40:17.657Z,76.10
2018-09-21T12:42:46.030Z,74.30
2018-09-21T12:45:14.456Z,72.40
2018-09-21T12:47:42.885Z,70.80
2018-09-21T12:50:11.282Z,71.70
2018-09-21T12:52:39.643Z,71.80
2018-09-21T12:55:08.087Z,72.30
2018-09-21T12:57:36.513Z,73.20
2018-09-21T13:00:06.034Z,71.30
2018-09-21T13:02:34.439Z,71.10
2018-09-21T13:05:02.792Z,71.20
2018-09-21T13:07:31.254Z,69.20
2018-09-21T13:09:59.630Z,71.70
2018-09-21T13:12:28.192Z,70.70
2018-09-21T13:14:56.623Z,70.60
2018-09-21T13:17:25.113Z,71.10
2018-09-21T13:19:53.695Z,72.60
2018-09-21T13:22:22.026Z,74.80
2018-09-21T13:24:50.611Z,70.30
2018-09-21T13:27:19.085Z,70.10
2018-09-21T13:29:47.489Z,67.90
2018-09-21T13:32:15.927Z,68.20
2018-09-21T13:34:44.375Z,67.50
2018-09-21T13:37:12.862Z,63.60
2018-09-21T13:39:41.287Z,63.30
2018-09-21T13:42:09.721Z,64.30
2018-09-21T13:44:38.127Z,63.20
2018-09-21T13:47:06.575Z,64.10
2018-09-21T13:49:35.073Z,65.60
2018-09-21T13:52:03.532Z,66.00
2018-09-21T13:54:32.021Z,64.90
2018-09-21T13:57:00.522Z,68.40
2018-09-21T13:59:28.931Z,65.90
2018-09-21T14:01:57.337Z,68.30
2018-09-21T14:04:25.742Z,66.90
2018-09-21T14:06:54.079Z,69.90
2018-09-21T14:09:23.235Z,68.40
2018-09-21T14:11:51.578Z,69.40
2018-09-21T14:14:19.961Z,70.00
2018-09-21T14:16:48.475Z,69.40
2018-09-21T14:19:16.880Z,69.50
2018-09-21T14:21:45.253Z,71.80
2018-09-21T14:24:13.789Z,72.30
2018-09-21T14:26:42.180Z,72.50
2018-09-21T14:29:10.591Z,73.30
2018-09-21T14:31:38.916Z,73.20
2018-09-21T14:34:07.339Z,73.80
2018-09-21T14:36:35.730Z,73.30
2018-09-21T14:39:05.223Z,72.80
2018-09-21T14:41:33.640Z,73.80
2018-09-21T14:44:01.973Z,75.10
2018-09-21T14:46:30.384Z,78.10
2018-09-21T14:48:58.853Z,75.30
2018-09-21T14:51:27.274Z,75.40
2018-09-21T14:53:55.701Z,76.10
2018-09-21T14:56:24.139Z,76.30
2018-09-21T14:58:52.717Z,75.20
2018-09-21T15:01:21.467Z,76.30
2018-09-21T15:03:49.846Z,76.50
2018-09-21T15:06:18.307Z,77.00
2018-09-21T15:08:46.708Z,75.70
2018-09-21T15:11:15.214Z,77.40
2018-09-21T15:13:43.638Z,76.30
2018-09-21T15:16:12.073Z,75.70
2018-09-21T15:18:40.462Z,76.80
2018-09-21T15:21:08.849Z,78.00
2018-09-21T15:23:37.225Z,77.50
2018-09-21T15:26:05.695Z,78.10
2018-09-21T15:28:34.179Z,77.80
2018-09-21T15:31:02.599Z,78.20
2018-09-21T15:33:30.957Z,78.70
2018-09-21T15:35:59.427Z,80.50
2018-09-21T15:38:27.902Z,79.30
2018-09-21T15:40:56.287Z,80.50
2018-09-21T15:43:25.040Z,80.80
2018-09-21T15:45:53.486Z,82.30
2018-09-21T15:48:22.203Z,80.90
2018-09-21T15:50:50.575Z,80.70
2018-09-21T15:53:18.943Z,82.60
2018-09-21T15:55:47.399Z,82.30
2018-09-21T15:58:15.781Z,82.80
2018-09-21T16:00:44.291Z,83.30
2018-09-21T16:03:12.705Z,84.00
2018-09-21T16:05:41.279Z,83.20
2018-09-21T16:08:09.649Z,86.10
2018-09-21T16:10:38.107Z,85.10
2018-09-21T16:13:06.524Z,83.90
2018-09-21T16:15:34.861Z,85.80
2018-09-21T16:18:03.305Z,83.60
2018-09-21T16:20:31.897Z,86.80
2018-09-21T16:23:00.326Z,84.50
2018-09-21T16:25:28.786Z,85.40
2018-09-21T16:27:57.158Z,86.30
2018-09-21T16:30:25.653Z,87.40
2018-09-21T16:32:54.099Z,86.20
2018-09-21T16:35:22.429Z,84.80
2018-09-21T16:37:50.931Z,85.40
2018-09-21T16:40:19.361Z,85.30
2018-09-21T16:42:47.695Z,86.90
2018-09-21T16:45:16.205Z,87.00
2018-09-21T16:47:44.588Z,87.00
2018-09-21T16:50:13.015Z,87.20
2018-09-21T16:52:41.354Z,89.30
2018-09-21T16:55:09.826Z,88.60
2018-09-21T16:57:38.341Z,87.30
2018-09-21T17:00:07.681Z,90.00
2018-09-21T17:02:36.113Z,88.00
2018-09-21T17:05:05.173Z,88.00
2018-09-21T17:07:33.519Z,87.70
2018-09-21T17:10:01.947Z,87.80
2018-09-21T17:12:30.415Z,88.70
2018-09-21T17:14:58.849Z,88.90
2018-09-21T17:17:27.242Z,90.00
2018-09-21T17:19:55.662Z,89.60
2018-09-21T17:22:24.040Z,89.80
2018-09-21T17:24:52.401Z,89.70
2018-09-21T17:27:20.745Z,90.30
2018-09-21T17:29:49.235Z,90.90
2018-09-21T17:32:17.617Z,91.10
2018-09-21T17:34:46.042Z,91.80
2018-09-21T17:37:14.393Z,92.30
2018-09-21T17:39:42.800Z,92.30
2018-09-21T17:42:11.186Z,92.20
2018-09-21T17:44:39.509Z,92.40
2018-09-21T17:47:08.003Z,92.10
2018-09-21T17:49:37.239Z,91.80
2018-09-21T17:52:05.598Z,91.80
2018-09-21T17:54:34.001Z,91.40
2018-09-21T17:57:02.378Z,91.40
2018-09-21T17:59:30.735Z,91.50
2018-09-21T18:01:59.034Z,91.80
2018-09-21T18:04:27.516Z,91.80
2018-09-21T18:06:55.874Z,91.90
2018-09-21T18:09:24.243Z,92.30
2018-09-21T18:11:52.625Z,92.30
2018-09-21T18:14:21.042Z,92.50
2018-09-21T18:16:49.568Z,92.30
2018-09-21T18:19:17.967Z,92.70
2018-09-21T18:21:46.471Z,93.00
2018-09-21T18:24:15.121Z,93.50
2018-09-21T18:26:43.477Z,93.50
2018-09-21T18:29:11.930Z,93.50
2018-09-21T18:31:40.400Z,93.30
2018-09-21T18:34:08.701Z,93.30
2018-09-21T18:36:37.151Z,93.10
2018-09-21T18:39:06.997Z,93.60
2018-09-21T18:41:35.334Z,93.70
2018-09-21T18:44:04.117Z,93.60
2018-09-21T18:46:32.514Z,93.10
2018-09-21T18:49:01.017Z,93.20
2018-09-21T18:51:29.355Z,93.10
2018-09-21T18:53:57.752Z,93.40
2018-09-21T18:56:26.203Z,93.00
2018-09-21T18:58:54.611Z,93.40
2018-09-21T19:01:22.983Z,93.90
2018-09-21T19:03:51.404Z,94.70
2018-09-21T19:06:19.793Z,95.30
2018-09-21T19:08:48.352Z,95.70
2018-09-21T19:11:17.166Z,96.10
2018-09-21T19:13:50.051Z,96.30
2018-09-21T19:16:20.661Z,98.10
2018-09-21T19:18:51.106Z,99.10
2018-09-21T19:21:21.188Z,99.90
2018-09-21T19:23:51.890Z,99.90
2018-09-21T19:26:22.228Z,99.90
2018-09-21T19:28:50.879Z,99.90
2018-09-21T19:31:21.334Z,99.90
2018-09-21T19:33:58.783Z,99.90
2018-09-21T19:36:27.410Z,99.90
2018-09-21T19:38:57.680Z,99.90
2018-09-21T19:41:27.456Z,99.90
2018-09-21T19:43:57.896Z,99.90
2018-09-21T19:46:26.335Z,99.90
2018-09-21T19:48:54.785Z,99.90
2018-09-21T19:51:23.288Z,99.90
2018-09-21T19:53:51.654Z,99.90
2018-09-21T19:56:20.046Z,99.90
2018-09-21T19:58:48.477Z,99.90
2018-09-21T20:01:16.871Z,99.90
2018-09-21T20:03:45.188Z,99.90
2018-09-21T20:06:14.171Z,99.90
2018-09-21T20:08:42.922Z,99.90
2018-09-21T20:11:12.131Z,99.90
2018-09-21T20:13:41.602Z,99.90
2018-09-21T20:16:10.830Z,99.90
2018-09-21T20:18:40.417Z,99.90
2018-09-21T20:21:09.561Z,99.90
2018-09-21T20:23:39.083Z,99.90
2018-09-21T20:26:08.345Z,99.90
2018-09-21T20:28:36.869Z,99.90
2018-09-21T20:31:10.874Z,99.90
2018-09-21T20:33:40.540Z,99.90
2018-09-21T20:36:27.701Z,99.90
2018-09-21T20:38:56.541Z,99.90
2018-09-21T20:41:25.321Z,99.90
2018-09-21T20:43:54.556Z,99.90
2018-09-21T20:46:22.982Z,99.90
2018-09-21T20:48:51.444Z,99.90
2018-09-21T20:51:19.845Z,99.90
2018-09-21T20:53:48.217Z,99.90
2018-09-21T20:56:16.659Z,99.90
2018-09-21T20:58:45.065Z,99.90
2018-09-21T21:01:13.751Z,99.90
2018-09-21T21:03:42.228Z,99.90
2018-09-21T21:06:10.705Z,99.90
2018-09-21T21:08:39.185Z,99.90
2018-09-21T21:11:07.626Z,99.90
2018-09-21T21:13:36.201Z,99.90
2018-09-21T21:16:05.006Z,99.90
2018-09-21T21:18:34.571Z,99.90
2018-09-21T21:21:05.579Z,99.90
2018-09-21T21:23:34.507Z,99.90
2018-09-21T21:26:03.691Z,99.90
2018-09-21T21:28:32.888Z,99.90
2018-09-21T21:31:01.406Z,99.90
2018-09-21T21:33:29.760Z,99.90
2018-09-21T21:35:58.373Z,99.90
2018-09-21T21:38:26.786Z,99.90
2018-09-21T21:40:55.140Z,99.90
2018-09-21T21:43:23.537Z,99.90
2018-09-21T21:45:52.359Z,99.90
2018-09-21T21:48:20.745Z,99.90
2018-09-21T21:50:49.133Z,99.90
2018-09-21T21:53:17.553Z,99.90
2018-09-21T21:55:45.978Z,99.90
2018-09-21T21:58:14.447Z,99.90
2018-09-21T22:00:48.355Z,99.90
2018-09-21T22:03:16.755Z,99.90
2018-09-21T22:05:51.004Z,99.90
2018-09-21T22:08:19.371Z,99.90
2018-09-21T22:10:47.789Z,99.90
2018-09-21T22:13:21.545Z,99.90
2018-09-21T22:15:50.354Z,99.90
2018-09-21T22:18:18.814Z,99.90
2018-09-21T22:20:47.581Z,99.90
2018-09-21T22:23:15.997Z,99.90
2018-09-21T22:25:44.333Z,99.90
2018-09-21T22:28:12.672Z,99.90
2018-09-21T22:30:41.048Z,99.90
2018-09-21T22:33:09.394Z,99.90
2018-09-21T22:35:37.842Z,99.90
2018-09-21T22:38:06.369Z,99.90
2018-09-21T22:40:34.743Z,99.90
2018-09-21T22:43:03.203Z,99.90
2018-09-21T22:45:31.655Z,99.90
2018-09-21T22:48:00.048Z,99.90
2018-09-21T22:50:28.611Z,99.90
2018-09-21T22:52:57.059Z,99.90
2018-09-21T22:55:25.425Z,99.90
2018-09-21T22:57:53.746Z,99.90
2018-09-21T23:00:22.200Z,99.90
2018-09-21T23:02:50.607Z,99.90
2018-09-21T23:05:18.966Z,99.90
2018-09-21T23:07:47.405Z,99.90
2018-09-21T23:10:15.780Z,99.90
2018-09-21T23:12:44.154Z,99.90
2018-09-21T23:15:12.552Z,99.90
2018-09-21T23:17:40.948Z,99.90
2018-09-21T23:20:09.308Z,99.90
2018-09-21T23:22:37.647Z,99.90
2018-09-21T23:25:06.105Z,99.90
2018-09-21T23:27:34.471Z,99.90
2018-09-21T23:30:02.951Z,99.90
2018-09-21T23:32:31.358Z,99.90
2018-09-21T23:34:59.749Z,99.90
2018-09-21T23:37:28.143Z,99.90
2018-09-21T23:39:56.554Z,99.90
2018-09-21T23:42:25.014Z,99.90
2018-09-21T23:44:53.453Z,99.90
2018-09-21T23:47:21.868Z,99.90
2018-09-21T23:49:50.235Z,99.90
2018-09-21T23:52:18.588Z,99.90
2018-09-21T23:54:47.030Z,99.90
2018-09-21T23:57:15.443Z,99.90
2018-09-21T23:59:43.878Z,99.90
